Wetterdaten: Woche 21.12.15 - 27.12.15 (KW52)
Datum Zeit Temp. A. Feuchte A. Luftdruck Regen Wind Richtung Taupunkt Windchill Windben
21.12.2015 00:00 2,5 C 80 % 1028,4 hPa 0,0 l/m 0,6 km/h N -0,6 C 2,5 C 6,4 km/h
21.12.2015 01:00 2,5 C 80 % 1028,0 hPa 0,0 l/m 0,5 km/h N -0,5 C 2,5 C 5,2 km/h
21.12.2015 02:00 2,4 C 81 % 1027,9 hPa 0,0 l/m 0,5 km/h N -0,5 C 2,4 C 6,4 km/h
21.12.2015 03:00 2,3 C 81 % 1027,7 hPa 0,0 l/m 0,5 km/h N -0,6 C 2,3 C 6,0 km/h
21.12.2015 04:00 2,3 C 81 % 1027,6 hPa 0,0 l/m 0,0 km/h N -0,6 C 2,3 C 2,0 km/h
21.12.2015 05:00 2,4 C 81 % 1027,7 hPa 0,0 l/m 0,2 km/h N -0,5 C 2,4 C 2,8 km/h
21.12.2015 06:00 2,4 C 81 % 1028,0 hPa 0,0 l/m 0,1 km/h N -0,5 C 2,4 C 2,4 km/h
21.12.2015 07:00 2,5 C 81 % 1028,5 hPa 0,0 l/m 0,1 km/h N -0,4 C 2,5 C 2,0 km/h
21.12.2015 08:00 2,5 C 81 % 1028,7 hPa 0,0 l/m 0,0 km/h N -0,4 C 2,5 C 0,0 km/h
21.12.2015 09:00 2,7 C 81 % 1028,8 hPa 0,0 l/m 0,1 km/h N -0,3 C 2,7 C 0,8 km/h
21.12.2015 10:00 2,9 C 81 % 1028,9 hPa 0,0 l/m 0,1 km/h N 0,0 C 2,9 C 2,4 km/h
21.12.2015 11:00 3,2 C 81 % 1028,6 hPa 0,0 l/m 0,2 km/h N 0,3 C 3,2 C 2,8 km/h
21.12.2015 12:00 3,4 C 82 % 1028,4 hPa 0,0 l/m 0,4 km/h N 0,5 C 3,4 C 4,4 km/h
21.12.2015 13:00 3,6 C 82 % 1028,0 hPa 0,0 l/m 0,2 km/h N 0,8 C 3,6 C 4,4 km/h
21.12.2015 14:00 3,7 C 82 % 1027,9 hPa 0,0 l/m 0,9 km/h N 0,9 C 3,7 C 6,8 km/h
21.12.2015 15:00 3,7 C 83 % 1028,3 hPa 0,0 l/m 0,4 km/h N 1,1 C 3,7 C 5,2 km/h
21.12.2015 16:00 3,5 C 83 % 1028,8 hPa 0,0 l/m 0,2 km/h N 0,9 C 3,5 C 2,8 km/h
21.12.2015 17:00 3,4 C 83 % 1029,6 hPa 0,0 l/m 0,0 km/h N 0,8 C 3,4 C 0,4 km/h
21.12.2015 18:00 3,4 C 83 % 1029,6 hPa 0,0 l/m 0,1 km/h N 0,7 C 3,4 C 2,4 km/h
21.12.2015 19:00 3,3 C 83 % 1029,4 hPa 0,0 l/m 0,4 km/h N 0,7 C 3,3 C 4,0 km/h
21.12.2015 20:00 2,8 C 83 % 1029,8 hPa 0,0 l/m 0,2 km/h N 0,3 C 2,8 C 2,0 km/h
21.12.2015 21:00 1,5 C 84 % 1030,4 hPa 0,0 l/m 0,0 km/h N -0,9 C 1,5 C 0,0 km/h
21.12.2015 22:00 0,8 C 84 % 1030,7 hPa 0,0 l/m 0,2 km/h N -1,6 C 0,8 C 2,0 km/h
21.12.2015 23:00 0,2 C 84 % 1030,6 hPa 0,0 l/m 0,1 km/h N -2,3 C 0,2 C 2,4 km/h
22.12.2015 00:00 -0,3 C 83 % 1030,3 hPa 0,0 l/m 0,0 km/h N -2,8 C -0,3 C 0,0 km/h
22.12.2015 01:00 -0,7 C 83 % 1029,8 hPa 0,0 l/m 0,0 km/h N -3,2 C -0,7 C 0,0 km/h
22.12.2015 02:00 -0,9 C 83 % 1030,0 hPa 0,0 l/m 0,2 km/h N -3,4 C -0,9 C 2,4 km/h
22.12.2015 03:00 -0,6 C 83 % 1029,9 hPa 0,0 l/m 0,3 km/h N -3,1 C -0,6 C 3,6 km/h
22.12.2015 04:00 2,1 C 81 % 1029,5 hPa 0,0 l/m 3,5 km/h N -0,8 C 1,5 C 14,5 km/h
22.12.2015 05:00 10,9 C 69 % 1028,4 hPa 0,0 l/m 7,6 km/h N 5,3 C 10,1 C 26,9 km/h
22.12.2015 06:00 11,9 C 60 % 1029,1 hPa 0,0 l/m 5,7 km/h N 4,4 C 11,7 C 23,7 km/h
22.12.2015 07:00 11,9 C 60 % 1029,6 hPa 0,0 l/m 5,3 km/h N 4,4 C 11,9 C 17,3 km/h
22.12.2015 08:00 11,5 C 63 % 1030,6 hPa 0,0 l/m 3,8 km/h N 4,6 C 11,5 C 14,5 km/h
22.12.2015 09:00 10,0 C 64 % 1031,0 hPa 0,0 l/m 1,9 km/h N 3,6 C 10,0 C 8,1 km/h
22.12.2015 10:00 9,2 C 70 % 1031,4 hPa 0,0 l/m 0,1 km/h N 4,0 C 9,2 C 4,0 km/h
22.12.2015 11:00 11,4 C 65 % 1030,9 hPa 0,0 l/m 0,5 km/h N 5,0 C 11,4 C 5,6 km/h
22.12.2015 12:00 12,3 C 62 % 1030,5 hPa 0,0 l/m 1,1 km/h N 5,2 C 12,3 C 7,6 km/h
22.12.2015 13:00 13,2 C 60 % 1029,8 hPa 0,0 l/m 0,8 km/h N 5,7 C 13,2 C 6,0 km/h
22.12.2015 14:00 13,1 C 56 % 1029,5 hPa 0,0 l/m 1,2 km/h N 4,6 C 13,1 C 8,9 km/h
22.12.2015 15:00 12,6 C 60 % 1029,7 hPa 0,0 l/m 0,8 km/h N 5,0 C 12,6 C 7,2 km/h
22.12.2015 16:00 10,7 C 66 % 1029,3 hPa 0,0 l/m 0,3 km/h N 4,6 C 10,7 C 2,0 km/h
22.12.2015 17:00 8,7 C 70 % 1029,0 hPa 0,0 l/m 0,0 km/h N 3,6 C 8,7 C 0,4 km/h
22.12.2015 18:00 6,8 C 76 % 1029,0 hPa 0,0 l/m 0,0 km/h N 3,0 C 6,8 C 0,4 km/h
22.12.2015 19:00 5,6 C 80 % 1029,1 hPa 0,0 l/m 0,2 km/h N 2,4 C 5,6 C 2,0 km/h
22.12.2015 20:00 4,5 C 82 % 1029,1 hPa 0,0 l/m 0,1 km/h N 1,7 C 4,5 C 1,2 km/h
22.12.2015 21:00 3,6 C 83 % 1029,1 hPa 0,0 l/m 0,1 km/h N 1,0 C 3,6 C 1,6 km/h
22.12.2015 22:00 3,0 C 84 % 1028,9 hPa 0,0 l/m 0,0 km/h N 0,5 C 3,0 C 0,0 km/h
22.12.2015 23:00 2,1 C 84 % 1028,5 hPa 0,0 l/m 0,0 km/h N -0,3 C 2,1 C 0,0 km/h
23.12.2015 00:00 1,2 C 84 % 1028,3 hPa 0,0 l/m 0,0 km/h N -1,2 C 1,2 C 0,0 km/h
23.12.2015 01:00 0,8 C 84 % 1028,1 hPa 0,0 l/m 0,0 km/h N -1,6 C 0,8 C 0,0 km/h
23.12.2015 02:00 0,2 C 84 % 1027,9 hPa 0,0 l/m 0,0 km/h N -2,2 C 0,2 C 0,0 km/h
23.12.2015 03:00 -0,3 C 84 % 1027,7 hPa 0,0 l/m 0,0 km/h N -2,7 C -0,3 C 0,0 km/h
23.12.2015 04:00 0,3 C 83 % 1027,2 hPa 0,0 l/m 0,0 km/h N -2,3 C 0,3 C 0,0 km/h
23.12.2015 05:00 0,6 C 83 % 1027,3 hPa 0,0 l/m 0,1 km/h N -2,0 C 0,6 C 0,4 km/h
23.12.2015 06:00 0,6 C 83 % 1027,9 hPa 0,0 l/m 0,1 km/h N -2,0 C 0,6 C 0,8 km/h
23.12.2015 07:00 1,4 C 82 % 1028,2 hPa 0,3 l/m 0,4 km/h N -1,4 C 1,4 C 2,4 km/h
23.12.2015 08:00 1,6 C 82 % 1028,9 hPa 0,0 l/m 0,1 km/h N -1,1 C 1,6 C 0,8 km/h
23.12.2015 09:00 2,2 C 81 % 1029,5 hPa 0,0 l/m 0,1 km/h N -0,7 C 2,2 C 1,2 km/h
23.12.2015 10:00 2,9 C 81 % 1029,6 hPa 0,0 l/m 0,3 km/h N -0,0 C 2,9 C 3,2 km/h
23.12.2015 11:00 5,3 C 80 % 1029,1 hPa 0,0 l/m 1,5 km/h N 2,0 C 5,3 C 7,6 km/h
23.12.2015 12:00 10,6 C 74 % 1028,4 hPa 0,0 l/m 3,3 km/h N 6,1 C 10,6 C 18,9 km/h
23.12.2015 13:00 13,6 C 57 % 1028,0 hPa 0,0 l/m 5,7 km/h N 5,2 C 13,2 C 20,1 km/h
23.12.2015 14:00 13,8 C 55 % 1028,0 hPa 0,0 l/m 6,2 km/h N 5,0 C 13,6 C 22,1 km/h
23.12.2015 15:00 13,4 C 55 % 1028,4 hPa 0,0 l/m 6,7 km/h N 4,6 C 12,8 C 24,5 km/h
23.12.2015 16:00 12,4 C 57 % 1028,8 hPa 0,0 l/m 2,1 km/h N 4,2 C 12,4 C 13,6 km/h
23.12.2015 17:00 10,6 C 62 % 1029,5 hPa 0,0 l/m 0,3 km/h N 3,5 C 10,6 C 6,9 km/h
23.12.2015 18:00 7,8 C 69 % 1030,6 hPa 0,0 l/m 0,3 km/h N 2,4 C 7,8 C 4,4 km/h
23.12.2015 19:00 5,4 C 79 % 1031,1 hPa 0,0 l/m 0,9 km/h N 1,9 C 5,4 C 5,2 km/h
23.12.2015 20:00 9,3 C 70 % 1031,1 hPa 0,0 l/m 1,5 km/h N 4,0 C 9,3 C 7,6 km/h
23.12.2015 21:00 5,6 C 73 % 1031,5 hPa 0,0 l/m 0,0 km/h N 1,1 C 5,6 C 0,0 km/h
23.12.2015 22:00 4,0 C 80 % 1031,7 hPa 0,0 l/m 0,0 km/h N 0,9 C 4,0 C 1,2 km/h
23.12.2015 23:00 3,4 C 82 % 1031,7 hPa 0,0 l/m 0,0 km/h N 0,6 C 3,4 C 0,0 km/h
24.12.2015 00:00 4,3 C 83 % 1031,2 hPa 0,0 l/m 0,0 km/h N 1,6 C 4,3 C 0,0 km/h
24.12.2015 01:00 5,0 C 83 % 1030,7 hPa 0,0 l/m 0,0 km/h N 2,3 C 5,0 C 0,0 km/h
24.12.2015 02:00 5,1 C 83 % 1030,8 hPa 0,0 l/m 0,0 km/h N 2,5 C 5,1 C 0,0 km/h
24.12.2015 03:00 5,0 C 83 % 1030,9 hPa 0,0 l/m 0,0 km/h N 2,4 C 5,0 C 0,0 km/h
24.12.2015 04:00 5,0 C 83 % 1031,0 hPa 0,0 l/m 0,1 km/h N 2,3 C 5,0 C 0,8 km/h
24.12.2015 05:00 5,1 C 83 % 1030,9 hPa 0,0 l/m 0,0 km/h N 2,4 C 5,1 C 0,0 km/h
24.12.2015 06:00 4,5 C 84 % 1031,1 hPa 0,0 l/m 0,0 km/h N 2,0 C 4,5 C 0,0 km/h
24.12.2015 07:00 3,1 C 84 % 1030,8 hPa 0,0 l/m 0,0 km/h N 0,7 C 3,1 C 0,0 km/h
24.12.2015 08:00 2,2 C 84 % 1030,9 hPa 0,0 l/m 0,0 km/h N -0,2 C 2,2 C 0,0 km/h
24.12.2015 09:00 2,2 C 84 % 1031,1 hPa 0,0 l/m 0,0 km/h N -0,3 C 2,2 C 0,0 km/h
24.12.2015 10:00 5,0 C 82 % 1030,9 hPa 0,0 l/m 0,1 km/h N 2,2 C 5,0 C 2,8 km/h
24.12.2015 11:00 6,8 C 83 % 1030,3 hPa 0,0 l/m 0,3 km/h N 4,1 C 6,8 C 4,4 km/h
24.12.2015 12:00 8,5 C 81 % 1029,3 hPa 0,0 l/m 0,3 km/h N 5,4 C 8,5 C 4,4 km/h
24.12.2015 13:00 9,2 C 77 % 1028,4 hPa 0,0 l/m 0,4 km/h N 5,4 C 9,2 C 5,2 km/h
24.12.2015 14:00 8,9 C 77 % 1027,9 hPa 0,0 l/m 0,1 km/h N 5,2 C 8,9 C 3,6 km/h
24.12.2015 15:00 7,3 C 78 % 1027,9 hPa 0,0 l/m 0,1 km/h N 3,8 C 7,3 C 3,6 km/h
24.12.2015 16:00 5,3 C 81 % 1028,2 hPa 0,0 l/m 0,1 km/h N 2,3 C 5,3 C 2,4 km/h
24.12.2015 17:00 4,1 C 83 % 1028,7 hPa 0,0 l/m 0,5 km/h N 1,4 C 4,1 C 5,2 km/h
24.12.2015 18:00 3,8 C 83 % 1028,8 hPa 0,0 l/m 1,2 km/h N 1,1 C 3,8 C 6,0 km/h
24.12.2015 19:00 3,8 C 83 % 1029,2 hPa 0,0 l/m 0,8 km/h N 1,1 C 3,8 C 6,8 km/h
24.12.2015 20:00 3,5 C 82 % 1029,6 hPa 0,0 l/m 0,6 km/h N 0,8 C 3,5 C 6,0 km/h
24.12.2015 21:00 3,4 C 82 % 1029,9 hPa 0,0 l/m 0,5 km/h N 0,6 C 3,4 C 6,0 km/h
24.12.2015 22:00 3,3 C 82 % 1030,1 hPa 0,0 l/m 0,2 km/h N 0,5 C 3,3 C 3,2 km/h
24.12.2015 23:00 3,2 C 82 % 1030,4 hPa 0,0 l/m 0,0 km/h N 0,4 C 3,2 C 0,0 km/h
25.12.2015 00:00 2,8 C 82 % 1030,1 hPa 0,0 l/m 0,0 km/h N 0,1 C 2,8 C 0,4 km/h
25.12.2015 01:00 2,8 C 82 % 1030,3 hPa 0,0 l/m 0,1 km/h N 0,0 C 2,8 C 1,2 km/h
25.12.2015 02:00 2,7 C 82 % 1030,6 hPa 0,0 l/m 0,8 km/h N -0,0 C 2,7 C 4,8 km/h
25.12.2015 03:00 2,3 C 82 % 1030,6 hPa 0,0 l/m 0,2 km/h N -0,4 C 2,3 C 2,8 km/h
25.12.2015 04:00 2,0 C 82 % 1030,9 hPa 0,0 l/m 0,0 km/h N -0,7 C 2,0 C 0,8 km/h
25.12.2015 05:00 1,8 C 82 % 1031,5 hPa 0,0 l/m 0,0 km/h N -1,0 C 1,8 C 0,8 km/h
25.12.2015 06:00 1,4 C 82 % 1032,1 hPa 0,0 l/m 0,2 km/h N -1,4 C 1,4 C 2,0 km/h
25.12.2015 07:00 0,9 C 82 % 1032,7 hPa 0,0 l/m 0,1 km/h N -1,8 C 0,9 C 2,0 km/h
25.12.2015 08:00 0,5 C 82 % 1033,3 hPa 0,0 l/m 0,3 km/h N -2,2 C 0,5 C 4,0 km/h
25.12.2015 09:00 1,2 C 81 % 1033,3 hPa 0,0 l/m 0,3 km/h N -1,7 C 1,2 C 4,4 km/h
25.12.2015 10:00 2,6 C 81 % 1033,6 hPa 0,0 l/m 0,3 km/h N -0,4 C 2,6 C 3,6 km/h
25.12.2015 11:00 3,3 C 81 % 1033,5 hPa 0,0 l/m 0,2 km/h N 0,4 C 3,3 C 3,2 km/h
25.12.2015 12:00 4,0 C 81 % 1033,3 hPa 0,0 l/m 0,4 km/h N 1,0 C 4,0 C 5,2 km/h
25.12.2015 13:00 4,1 C 82 % 1032,9 hPa 0,0 l/m 0,3 km/h N 1,4 C 4,1 C 3,6 km/h
25.12.2015 14:00 4,3 C 82 % 1032,6 hPa 0,0 l/m 0,1 km/h N 1,5 C 4,3 C 1,2 km/h
25.12.2015 15:00 4,3 C 82 % 1032,7 hPa 0,0 l/m 0,1 km/h N 1,5 C 4,3 C 2,8 km/h
25.12.2015 16:00 4,1 C 82 % 1032,9 hPa 0,0 l/m 0,1 km/h N 1,3 C 4,1 C 1,2 km/h
25.12.2015 17:00 3,5 C 82 % 1033,3 hPa 0,0 l/m 0,1 km/h N 0,8 C 3,5 C 0,8 km/h
25.12.2015 18:00 2,9 C 82 % 1033,8 hPa 0,0 l/m 0,1 km/h N 0,2 C 2,9 C 1,2 km/h
25.12.2015 19:00 2,5 C 82 % 1033,9 hPa 0,0 l/m 0,1 km/h N -0,3 C 2,5 C 2,0 km/h
25.12.2015 20:00 2,1 C 82 % 1033,9 hPa 0,0 l/m 0,0 km/h N -0,6 C 2,1 C 0,0 km/h
25.12.2015 21:00 1,8 C 82 % 1034,0 hPa 0,0 l/m 0,0 km/h N -0,9 C 1,8 C 0,4 km/h
25.12.2015 22:00 1,3 C 82 % 1034,0 hPa 0,0 l/m 0,0 km/h N -1,5 C 1,3 C 0,4 km/h
25.12.2015 23:00 0,9 C 82 % 1033,8 hPa 0,0 l/m 0,0 km/h N -1,9 C 0,9 C 0,0 km/h
26.12.2015 00:00 0,4 C 82 % 1033,5 hPa 0,0 l/m 0,0 km/h N -2,3 C 0,4 C 0,8 km/h
26.12.2015 01:00 0,3 C 82 % 1033,1 hPa 0,0 l/m 0,2 km/h N -2,5 C 0,3 C 1,6 km/h
26.12.2015 02:00 0,1 C 82 % 1033,1 hPa 0,0 l/m 0,0 km/h N -2,6 C 0,1 C 0,0 km/h
26.12.2015 03:00 -0,2 C 82 % 1033,2 hPa 0,0 l/m 0,0 km/h N -2,9 C -0,2 C 0,0 km/h
26.12.2015 04:00 -0,2 C 82 % 1033,2 hPa 0,0 l/m 0,0 km/h N -2,9 C -0,2 C 0,0 km/h
26.12.2015 05:00 -0,3 C 82 % 1033,1 hPa 0,0 l/m 0,1 km/h N -3,0 C -0,3 C 0,8 km/h
26.12.2015 06:00 -0,5 C 82 % 1033,1 hPa 0,0 l/m 0,1 km/h N -3,2 C -0,5 C 1,6 km/h
26.12.2015 07:00 -0,7 C 82 % 1033,3 hPa 0,0 l/m 0,1 km/h N -3,4 C -0,7 C 0,8 km/h
26.12.2015 08:00 -0,4 C 82 % 1033,3 hPa 0,0 l/m 0,0 km/h N -3,2 C -0,4 C 0,0 km/h
26.12.2015 09:00 0,2 C 81 % 1033,2 hPa 0,0 l/m 0,0 km/h N -2,6 C 0,2 C 0,4 km/h
26.12.2015 10:00 1,9 C 81 % 1033,1 hPa 0,0 l/m 0,0 km/h N -1,1 C 1,9 C 0,8 km/h
26.12.2015 11:00 3,9 C 80 % 1032,7 hPa 0,0 l/m 0,4 km/h N 0,8 C 3,9 C 2,8 km/h
26.12.2015 12:00 5,9 C 80 % 1031,9 hPa 0,0 l/m 0,3 km/h N 2,6 C 5,9 C 3,2 km/h
26.12.2015 13:00 7,8 C 81 % 1031,1 hPa 0,0 l/m 0,2 km/h N 4,8 C 7,8 C 3,2 km/h
26.12.2015 14:00 9,5 C 81 % 1030,2 hPa 0,0 l/m 0,1 km/h N 6,5 C 9,5 C 2,8 km/h
26.12.2015 15:00 9,1 C 78 % 1030,2 hPa 0,0 l/m 0,0 km/h N 5,4 C 9,1 C 1,2 km/h
26.12.2015 16:00 6,5 C 78 % 1030,5 hPa 0,0 l/m 0,0 km/h N 3,0 C 6,5 C 0,0 km/h
26.12.2015 17:00 4,1 C 81 % 1030,8 hPa 0,0 l/m 0,0 km/h N 1,2 C 4,1 C 0,0 km/h
26.12.2015 18:00 2,5 C 83 % 1030,9 hPa 0,0 l/m 0,0 km/h N -0,1 C 2,5 C 0,0 km/h
26.12.2015 19:00 1,0 C 84 % 1031,1 hPa 0,0 l/m 0,0 km/h N -1,5 C 1,0 C 0,0 km/h
26.12.2015 20:00 -0,1 C 84 % 1031,3 hPa 0,0 l/m 0,0 km/h N -2,4 C -0,1 C 0,0 km/h
26.12.2015 21:00 -0,1 C 84 % 1031,2 hPa 0,0 l/m 0,0 km/h N -2,4 C -0,1 C 0,0 km/h
26.12.2015 22:00 0,0 C 84 % 1031,2 hPa 0,0 l/m 0,1 km/h N -2,4 C 0,0 C 0,8 km/h
26.12.2015 23:00 -0,2 C 84 % 1031,5 hPa 0,0 l/m 0,1 km/h N -2,6 C -0,2 C 0,8 km/h
27.12.2015 00:00 -0,4 C 83 % 1031,3 hPa 0,0 l/m 0,0 km/h N -2,9 C -0,4 C 0,0 km/h
27.12.2015 01:00 -0,4 C 83 % 1031,1 hPa 0,0 l/m 0,0 km/h N -2,9 C -0,4 C 1,2 km/h
27.12.2015 02:00 -0,8 C 83 % 1031,1 hPa 0,0 l/m 0,1 km/h N -3,3 C -0,8 C 2,4 km/h
27.12.2015 03:00 -1,1 C 83 % 1031,2 hPa 0,0 l/m 0,1 km/h N -3,6 C -1,1 C 0,8 km/h
27.12.2015 04:00 -1,2 C 83 % 1031,6 hPa 0,0 l/m 0,0 km/h N -3,7 C -1,2 C 0,0 km/h
27.12.2015 05:00 -1,3 C 83 % 1031,6 hPa 0,0 l/m 0,1 km/h N -3,8 C -1,3 C 1,6 km/h
27.12.2015 06:00 -1,6 C 83 % 1031,6 hPa 0,0 l/m 0,1 km/h N -4,1 C -1,6 C 2,0 km/h
27.12.2015 07:00 -2,1 C 83 % 1032,1 hPa 0,0 l/m 0,0 km/h N -4,6 C -2,1 C 0,8 km/h
27.12.2015 08:00 -2,2 C 83 % 1032,7 hPa 0,0 l/m 0,2 km/h N -4,7 C -2,2 C 2,0 km/h
27.12.2015 09:00 -1,9 C 82 % 1032,9 hPa 0,0 l/m 0,1 km/h N -4,5 C -1,9 C 1,6 km/h
27.12.2015 10:00 -1,4 C 82 % 1033,1 hPa 0,3 l/m 0,4 km/h N -4,0 C -1,4 C 2,8 km/h
27.12.2015 11:00 0,1 C 81 % 1032,7 hPa 0,0 l/m 0,1 km/h N -2,7 C 0,1 C 2,0 km/h
27.12.2015 12:00 1,7 C 81 % 1032,6 hPa 0,0 l/m 0,5 km/h N -1,2 C 1,7 C 4,0 km/h
27.12.2015 13:00 2,5 C 81 % 1032,3 hPa 0,0 l/m 0,3 km/h N -0,5 C 2,5 C 3,6 km/h
27.12.2015 14:00 3,1 C 81 % 1032,2 hPa 0,0 l/m 0,1 km/h N 0,2 C 3,1 C 3,6 km/h
27.12.2015 15:00 2,6 C 82 % 1032,4 hPa 0,0 l/m 0,0 km/h N -0,2 C 2,6 C 1,6 km/h
27.12.2015 16:00 2,4 C 82 % 1032,8 hPa 0,0 l/m 0,1 km/h N -0,4 C 2,4 C 2,0 km/h
27.12.2015 17:00 2,2 C 82 % 1032,8 hPa 0,0 l/m 0,0 km/h N -0,6 C 2,2 C 0,0 km/h
27.12.2015 18:00 1,9 C 82 % 1032,9 hPa 0,0 l/m 0,0 km/h N -0,8 C 1,9 C 0,0 km/h
27.12.2015 19:00 1,6 C 82 % 1032,8 hPa 0,0 l/m 0,1 km/h N -1,1 C 1,6 C 1,2 km/h
27.12.2015 20:00 1,3 C 82 % 1032,9 hPa 0,0 l/m 0,0 km/h N -1,5 C 1,3 C 0,4 km/h
27.12.2015 21:00 0,7 C 82 % 1033,0 hPa 0,0 l/m 0,0 km/h N -2,0 C 0,7 C 1,2 km/h
27.12.2015 22:00 -0,1 C 82 % 1033,3 hPa 0,0 l/m 0,0 km/h N -2,8 C -0,1 C 0,4 km/h
27.12.2015 23:00 -0,3 C 82 % 1033,0 hPa 0,0 l/m 0,0 km/h N -3,0 C -0,3 C 1,2 km/h
Min-Datum _ 27.12.15 22.12.15 23.12.15 - 21.12.15 - 27.12.15 27.12.15 21.12.15
_ Min-Zeit 08:15 14:30 04:30 - 04:00 - 08:00 08:00 04:45
Minimum _ -2,3 C 55 % 1027,1 hPa - 0,0 km/h - -4,8 C -2,3 C 0,0 km/h
Max-Datum _ 23.12.15 21.12.15 25.12.15 23.12.15 22.12.15 - 23.12.15 23.12.15 22.12.15
_ Max-Zeit 14:00 20:45 20:15 07:45 05:00 - 12:15 14:00 05:00
Maximum _ 13,9 C 84 % 1034,1 hPa 0,3 l/m 10,4 km/h
N
- 7,3 C 13,9 C 33,8 km/h
N
Durchschnitt _ 3,6 C 80 % 1030,6 hPa #0,5 l/m 0,5 km/h N 0,3 C 3,5 C 3,2 km/h